Terminal Aerodrome Forecast
Issued by NWS Jackson, MS

Home | Current Version | Previous Version | Text Only | Print | Product List | Glossary On
Versions: 1 2 3 4 5 6 7 8 9 10 11 12 13 14 15
000
FTUS44 KJAN 020254 RRA
TAFGWO
TAF
KGWO 020254Z 0203/0224 15010KT P6SM SCT250
     FM021100 17005KT 5SM BR FEW050 FEW250
     FM021400 18013G18KT P6SM SCT060 OVC250
     FM021700 18015G22KT P6SM BKN035 OVC250
     FM022000 22018G28KT P6SM VCTS OVC050CB=

USA.gov is the U.S. government's official web portal to all federal, state and local government web resources and services.